createdAt,value
2023-03-30T00:01:18.995Z,5.41
2023-03-30T00:03:50.220Z,5.55
2023-03-30T00:06:23.604Z,5.74
2023-03-30T00:09:01.821Z,5.13
2023-03-30T00:11:34.620Z,5.02
2023-03-30T00:14:40.002Z,5.29
2023-03-30T00:17:16.719Z,5.43
2023-03-30T00:19:49.586Z,5.29
2023-03-30T00:22:21.470Z,4.65
2023-03-30T00:25:21.644Z,4.39
2023-03-30T00:28:08.206Z,4.67
2023-03-30T00:30:38.902Z,5.07
2023-03-30T00:33:09.513Z,5.27
2023-03-30T00:35:39.198Z,5.61
2023-03-30T00:38:16.741Z,5.69
2023-03-30T00:40:54.943Z,5.73
2023-03-30T00:43:23.953Z,5.74
2023-03-30T00:45:53.963Z,5.98
2023-03-30T00:48:35.002Z,5.89
2023-03-30T00:51:11.097Z,5.80
2023-03-30T00:53:53.718Z,6.05
2023-03-30T00:56:27.680Z,5.77
2023-03-30T00:58:58.914Z,5.71
2023-03-30T01:01:31.043Z,5.88
2023-03-30T01:04:04.194Z,5.96
2023-03-30T01:06:35.937Z,5.90
2023-03-30T01:09:05.388Z,6.01
2023-03-30T01:11:34.247Z,5.99
2023-03-30T01:14:07.307Z,6.30
2023-03-30T01:16:47.425Z,5.88
2023-03-30T01:19:39.032Z,5.94
2023-03-30T01:22:31.831Z,5.96
2023-03-30T01:25:21.502Z,5.94
2023-03-30T01:28:06.887Z,6.14
2023-03-30T01:30:54.512Z,5.02
2023-03-30T01:33:34.524Z,5.69
2023-03-30T01:36:31.973Z,5.83
2023-03-30T01:39:15.026Z,6.14
2023-03-30T01:41:47.372Z,6.04
2023-03-30T01:45:01.064Z,5.93
2023-03-30T01:48:24.036Z,6.03
2023-03-30T01:51:01.418Z,5.96
2023-03-30T01:53:32.385Z,6.04
2023-03-30T01:56:05.119Z,6.07
2023-03-30T01:58:47.365Z,6.35
2023-03-30T02:01:21.998Z,6.11
2023-03-30T02:04:05.538Z,6.28
2023-03-30T02:06:45.501Z,6.10
2023-03-30T02:09:19.179Z,6.41
2023-03-30T02:11:54.580Z,6.04
2023-03-30T02:14:31.705Z,6.41
2023-03-30T02:17:13.309Z,6.17
2023-03-30T02:19:46.734Z,6.57
2023-03-30T02:22:19.249Z,6.72
2023-03-30T02:24:52.405Z,6.44
2023-03-30T02:27:24.078Z,6.53
2023-03-30T02:29:55.238Z,6.47
2023-03-30T02:32:33.613Z,6.45
2023-03-30T02:35:19.368Z,6.77
2023-03-30T02:38:04.455Z,7.00
2023-03-30T02:40:55.442Z,6.74
2023-03-30T02:43:36.001Z,6.55
2023-03-30T02:46:31.963Z,6.81
2023-03-30T02:49:42.608Z,7.11
2023-03-30T02:52:49.302Z,6.78
2023-03-30T02:55:43.892Z,6.99
2023-03-30T02:58:54.724Z,6.59
2023-03-30T03:01:42.870Z,6.79
2023-03-30T03:04:20.218Z,6.99
2023-03-30T03:07:07.964Z,6.90
2023-03-30T03:09:38.953Z,7.02
2023-03-30T03:12:09.839Z,6.98
2023-03-30T03:14:40.885Z,7.21
2023-03-30T03:17:10.279Z,7.19
2023-03-30T03:19:45.439Z,7.05
2023-03-30T03:22:17.235Z,7.08
2023-03-30T03:24:47.366Z,6.68
2023-03-30T03:27:52.201Z,6.96
2023-03-30T03:30:25.777Z,6.93
2023-03-30T03:33:03.700Z,6.79
2023-03-30T03:35:34.342Z,6.97
2023-03-30T03:38:08.500Z,6.72
2023-03-30T03:40:39.223Z,7.09
2023-03-30T03:43:10.666Z,6.56
2023-03-30T03:45:40.072Z,6.76
2023-03-30T03:48:10.120Z,6.49
2023-03-30T03:50:46.526Z,6.83
2023-03-30T03:53:16.163Z,6.76
2023-03-30T03:55:47.250Z,6.66
2023-03-30T03:58:18.694Z,6.84
2023-03-30T04:00:48.056Z,6.76
2023-03-30T04:03:18.680Z,6.75
2023-03-30T04:05:47.653Z,7.51
2023-03-30T04:08:18.713Z,7.09
2023-03-30T04:10:48.011Z,7.18
2023-03-30T04:13:19.549Z,7.26
2023-03-30T04:16:08.593Z,7.43
2023-03-30T04:18:53.360Z,7.35
2023-03-30T04:21:38.315Z,7.32
2023-03-30T04:24:19.290Z,7.16
2023-03-30T04:26:59.282Z,7.42
2023-03-30T04:29:46.838Z,7.63
2023-03-30T04:33:44.192Z,7.94
2023-03-30T04:36:33.767Z,7.67
2023-03-30T04:39:31.060Z,7.80
2023-03-30T04:42:20.774Z,7.92
2023-03-30T04:45:11.113Z,7.70
2023-03-30T04:48:11.981Z,7.57
2023-03-30T04:51:01.830Z,7.79
2023-03-30T04:53:49.661Z,7.79
2023-03-30T04:56:59.150Z,7.72
2023-03-30T05:00:09.206Z,7.96
2023-03-30T05:02:59.809Z,7.85
2023-03-30T05:05:47.375Z,7.68
2023-03-30T05:08:45.489Z,7.53
2023-03-30T05:11:21.699Z,7.96
2023-03-30T05:14:04.515Z,8.37
2023-03-30T05:16:49.549Z,8.16
2023-03-30T05:19:22.537Z,8.30
2023-03-30T05:22:18.063Z,7.76
2023-03-30T05:24:59.783Z,8.02
2023-03-30T05:27:52.696Z,8.13
2023-03-30T05:30:42.940Z,7.94
2023-03-30T05:33:50.819Z,8.04
2023-03-30T05:36:20.064Z,7.85
2023-03-30T05:39:08.345Z,7.89
2023-03-30T05:42:04.785Z,8.06
2023-03-30T05:44:54.457Z,8.27
2023-03-30T05:47:43.732Z,7.97
2023-03-30T05:50:43.236Z,8.34
2023-03-30T05:53:22.469Z,8.16
2023-03-30T05:56:10.964Z,8.20
2023-03-30T05:58:58.262Z,8.33
2023-03-30T06:01:49.766Z,8.11
2023-03-30T06:04:19.697Z,8.27
2023-03-30T06:06:49.214Z,7.99
2023-03-30T06:09:18.175Z,8.60
2023-03-30T06:11:47.497Z,8.45
2023-03-30T06:14:21.446Z,8.00
2023-03-30T06:17:14.690Z,7.79
2023-03-30T06:19:45.492Z,7.88
2023-03-30T06:22:14.574Z,8.31
2023-03-30T06:25:07.682Z,7.85
2023-03-30T06:27:38.650Z,7.76
2023-03-30T06:30:10.954Z,7.45
2023-03-30T06:36:44.203Z,7.93
2023-03-30T06:39:17.974Z,8.34
2023-03-30T06:41:47.469Z,8.04
2023-03-30T06:44:35.208Z,8.33
2023-03-30T06:47:27.740Z,8.33
2023-03-30T06:50:46.710Z,8.20
2023-03-30T06:53:27.417Z,8.11
2023-03-30T06:56:00.468Z,8.34
2023-03-30T06:58:32.374Z,7.96
2023-03-30T07:01:16.637Z,8.54
2023-03-30T07:04:06.174Z,8.11
2023-03-30T07:06:59.150Z,8.45
2023-03-30T07:09:30.624Z,7.82
2023-03-30T07:12:01.177Z,7.95
2023-03-30T07:14:31.149Z,7.85
2023-03-30T07:17:00.872Z,7.99
2023-03-30T07:19:31.668Z,8.24
2023-03-30T07:22:03.362Z,8.05
2023-03-30T07:24:34.937Z,8.50
2023-03-30T07:27:03.687Z,8.39
2023-03-30T07:29:33.567Z,8.44
2023-03-30T07:32:03.202Z,8.46
2023-03-30T07:34:34.588Z,8.09
2023-03-30T07:37:03.697Z,8.12
2023-03-30T07:39:34.989Z,8.01
2023-03-30T07:42:08.833Z,8.09
2023-03-30T07:44:37.965Z,8.30
2023-03-30T07:47:09.768Z,8.47
2023-03-30T07:49:40.617Z,7.88
2023-03-30T07:52:10.752Z,7.53
2023-03-30T07:54:55.210Z,8.02
2023-03-30T07:57:32.896Z,8.19
2023-03-30T08:00:02.699Z,8.36
2023-03-30T08:02:45.808Z,7.91
2023-03-30T08:05:19.849Z,8.09
2023-03-30T08:08:04.290Z,8.08
2023-03-30T08:10:36.038Z,8.12
2023-03-30T08:13:07.768Z,8.17
2023-03-30T08:15:40.557Z,8.02
2023-03-30T08:18:09.597Z,8.06
2023-03-30T08:20:39.403Z,7.66
2023-03-30T08:23:11.022Z,8.12
2023-03-30T08:25:39.707Z,7.79
2023-03-30T08:28:09.615Z,7.82
2023-03-30T08:30:38.826Z,8.08
2023-03-30T08:33:09.618Z,8.06
2023-03-30T08:35:40.156Z,8.38
2023-03-30T08:38:10.602Z,8.02
2023-03-30T08:40:43.369Z,7.84
2023-03-30T08:43:12.297Z,7.87
2023-03-30T08:45:43.431Z,7.85
2023-03-30T08:48:21.613Z,7.97
2023-03-30T08:50:55.954Z,8.24
2023-03-30T08:53:25.310Z,8.13
2023-03-30T08:56:10.973Z,7.93
2023-03-30T08:58:45.580Z,8.17
2023-03-30T09:01:26.629Z,7.63
2023-03-30T09:03:55.306Z,8.13
2023-03-30T09:06:31.791Z,8.08
2023-03-30T09:09:02.216Z,7.90
2023-03-30T09:11:37.803Z,7.92
2023-03-30T09:14:13.554Z,7.97
2023-03-30T09:16:56.870Z,7.94
2023-03-30T09:19:58.118Z,7.83
2023-03-30T09:22:34.729Z,7.97
2023-03-30T09:25:03.439Z,7.70
2023-03-30T09:28:13.327Z,7.57
2023-03-30T09:30:46.762Z,7.69
2023-03-30T09:33:45.269Z,7.43
2023-03-30T09:36:22.892Z,7.87
2023-03-30T09:38:53.532Z,7.89
2023-03-30T09:41:58.945Z,7.73
2023-03-30T09:44:38.239Z,7.81
2023-03-30T09:47:25.645Z,7.38
2023-03-30T09:50:10.521Z,7.41
2023-03-30T09:52:41.888Z,7.94
2023-03-30T09:55:29.423Z,7.73
2023-03-30T09:58:30.576Z,7.56
2023-03-30T10:01:13.363Z,7.75
2023-03-30T10:03:45.339Z,7.55
2023-03-30T10:06:19.338Z,7.87
2023-03-30T10:08:54.653Z,8.02
2023-03-30T10:11:31.882Z,7.36
2023-03-30T10:14:01.716Z,7.58
2023-03-30T10:16:35.564Z,7.77
2023-03-30T10:19:17.561Z,7.80
2023-03-30T10:21:47.703Z,7.49
2023-03-30T10:24:16.303Z,7.83
2023-03-30T10:26:50.375Z,8.26
2023-03-30T10:29:20.377Z,8.02
2023-03-30T10:31:55.561Z,7.70
2023-03-30T10:34:31.173Z,7.95
2023-03-30T10:37:01.374Z,7.91
2023-03-30T10:39:36.075Z,7.71
2023-03-30T10:42:11.134Z,7.62
2023-03-30T10:44:50.940Z,7.85
2023-03-30T10:47:32.061Z,7.67
2023-03-30T10:50:33.927Z,8.00
2023-03-30T10:53:28.044Z,7.86
2023-03-30T10:56:13.448Z,8.30
2023-03-30T10:58:54.728Z,8.30
2023-03-30T11:01:27.312Z,8.31
2023-03-30T11:04:16.202Z,8.00
2023-03-30T11:06:51.296Z,8.07
2023-03-30T11:09:29.759Z,8.58
2023-03-30T11:12:15.730Z,8.28
2023-03-30T11:14:56.650Z,8.45
2023-03-30T11:17:32.309Z,8.65
2023-03-30T11:20:19.187Z,8.01
2023-03-30T11:23:07.334Z,8.48
2023-03-30T11:25:47.127Z,8.08
2023-03-30T11:28:31.532Z,8.69
2023-03-30T11:31:14.666Z,8.18
2023-03-30T11:33:51.668Z,8.24
2023-03-30T11:36:31.841Z,8.64
2023-03-30T11:39:01.546Z,8.64
2023-03-30T11:41:51.920Z,8.98
2023-03-30T11:44:21.506Z,8.65
2023-03-30T11:47:15.854Z,8.46
2023-03-30T11:50:10.601Z,8.68
2023-03-30T11:53:00.108Z,8.53
2023-03-30T11:55:57.367Z,8.63
2023-03-30T11:58:33.413Z,8.55
2023-03-30T12:01:11.467Z,8.58
2023-03-30T12:04:07.574Z,8.28
2023-03-30T12:06:42.632Z,8.22
2023-03-30T12:09:20.659Z,8.56
2023-03-30T12:12:16.293Z,7.89
2023-03-30T12:14:55.068Z,7.92
2023-03-30T12:17:46.558Z,8.34
2023-03-30T12:21:01.160Z,7.47
2023-03-30T12:23:39.740Z,7.45
2023-03-30T12:26:40.325Z,7.52
2023-03-30T12:29:44.386Z,7.73
2023-03-30T12:32:19.430Z,7.69
2023-03-30T12:34:48.048Z,7.63
2023-03-30T12:37:23.163Z,7.79
2023-03-30T12:40:11.233Z,7.67
2023-03-30T12:42:56.596Z,7.91
2023-03-30T12:45:36.054Z,7.74
2023-03-30T12:48:43.918Z,7.53
2023-03-30T12:51:22.687Z,7.48
2023-03-30T12:54:03.746Z,7.30
2023-03-30T12:57:01.475Z,7.21
2023-03-30T12:59:51.734Z,7.57
2023-03-30T13:02:43.032Z,7.55
2023-03-30T13:05:32.861Z,7.57
2023-03-30T13:08:19.202Z,7.45
2023-03-30T13:10:48.161Z,7.71
2023-03-30T13:13:43.760Z,7.00
2023-03-30T13:16:14.219Z,7.25
2023-03-30T13:18:54.566Z,7.14
2023-03-30T13:21:27.233Z,7.24
2023-03-30T13:24:06.939Z,7.02
2023-03-30T13:26:43.720Z,7.33
2023-03-30T13:29:17.915Z,7.09
2023-03-30T13:32:01.252Z,7.17
2023-03-30T13:35:06.247Z,6.39
2023-03-30T13:38:01.375Z,6.31
2023-03-30T13:40:48.510Z,6.58
2023-03-30T13:43:36.395Z,6.88
2023-03-30T13:46:29.574Z,6.25
2023-03-30T13:49:23.443Z,6.91
2023-03-30T13:51:53.826Z,6.80
2023-03-30T13:54:29.958Z,7.07
2023-03-30T13:57:09.523Z,6.89
2023-03-30T13:59:43.571Z,6.67
2023-03-30T14:02:44.602Z,6.34
2023-03-30T14:05:41.980Z,6.90
2023-03-30T14:08:13.563Z,6.75
2023-03-30T14:10:47.224Z,7.00
2023-03-30T14:13:16.429Z,6.78
2023-03-30T14:15:51.922Z,7.03
2023-03-30T14:18:27.151Z,6.91
2023-03-30T14:21:04.052Z,6.67
2023-03-30T14:23:37.712Z,6.83
2023-03-30T14:26:13.692Z,6.79
2023-03-30T14:28:45.820Z,6.64
2023-03-30T14:31:24.695Z,6.75
2023-03-30T14:34:00.774Z,6.63
2023-03-30T14:36:30.894Z,6.71
2023-03-30T14:39:33.801Z,6.61
2023-03-30T14:42:15.097Z,6.32
2023-03-30T14:44:45.822Z,6.62
2023-03-30T14:47:16.655Z,6.57
2023-03-30T14:49:48.382Z,6.73
2023-03-30T14:52:23.345Z,6.77
2023-03-30T14:55:06.690Z,6.65
2023-03-30T14:57:40.186Z,6.83
2023-03-30T15:00:19.172Z,6.68
2023-03-30T15:02:53.076Z,6.99
2023-03-30T15:05:25.160Z,6.97
2023-03-30T15:07:54.794Z,6.57
2023-03-30T15:10:34.882Z,6.43
2023-03-30T15:13:05.702Z,6.56
2023-03-30T15:15:35.027Z,6.86
2023-03-30T15:18:05.738Z,6.75
2023-03-30T15:20:35.262Z,6.55
2023-03-30T15:23:05.404Z,6.55
2023-03-30T15:25:36.081Z,6.41
2023-03-30T15:28:14.711Z,6.42
2023-03-30T15:30:45.288Z,6.03
2023-03-30T15:33:32.242Z,6.53
2023-03-30T15:36:18.086Z,6.58
2023-03-30T15:38:52.348Z,6.23
2023-03-30T15:41:57.505Z,6.60
2023-03-30T15:44:27.894Z,5.81
2023-03-30T15:46:59.403Z,6.26
2023-03-30T15:49:49.183Z,5.92
2023-03-30T15:52:26.161Z,5.94
2023-03-30T15:54:57.761Z,5.94
2023-03-30T15:57:32.340Z,5.86
2023-03-30T16:03:04.667Z,5.76
2023-03-30T16:05:35.644Z,5.95
2023-03-30T16:08:06.067Z,6.12
2023-03-30T16:10:37.840Z,6.09
2023-03-30T16:13:07.721Z,6.09
2023-03-30T16:15:36.377Z,6.00
2023-03-30T16:18:06.920Z,6.05
2023-03-30T16:20:35.913Z,5.99
2023-03-30T16:23:05.885Z,6.00
2023-03-30T16:25:44.909Z,5.74
2023-03-30T16:28:17.903Z,6.05
2023-03-30T16:30:51.087Z,5.91
2023-03-30T16:33:19.973Z,5.98
2023-03-30T16:35:48.310Z,5.88
2023-03-30T16:38:19.247Z,5.84
2023-03-30T16:40:54.029Z,5.67
2023-03-30T16:43:22.756Z,4.92
2023-03-30T16:45:51.962Z,5.46
2023-03-30T16:48:22.846Z,5.59
2023-03-30T16:50:55.173Z,5.77
2023-03-30T16:53:24.677Z,5.54
2023-03-30T16:55:54.422Z,5.86
2023-03-30T16:58:24.174Z,5.58
2023-03-30T17:01:43.547Z,5.14
2023-03-30T17:04:13.532Z,5.49
2023-03-30T17:06:43.306Z,5.32
2023-03-30T17:09:16.109Z,5.87
2023-03-30T17:12:12.744Z,5.22
2023-03-30T17:14:43.070Z,5.57
2023-03-30T17:17:12.422Z,5.56
2023-03-30T17:19:42.387Z,5.71
2023-03-30T17:22:11.728Z,5.48
2023-03-30T17:24:40.346Z,5.48
2023-03-30T17:27:11.290Z,5.58
2023-03-30T17:29:45.470Z,5.55
2023-03-30T17:32:15.102Z,5.54
2023-03-30T17:34:44.493Z,5.43
2023-03-30T17:37:39.967Z,4.87
2023-03-30T17:40:31.633Z,4.93
2023-03-30T17:43:11.576Z,5.26
2023-03-30T17:45:57.482Z,5.18
2023-03-30T17:48:28.167Z,5.38
2023-03-30T17:51:01.559Z,5.28
2023-03-30T17:53:32.470Z,5.17
2023-03-30T17:56:03.086Z,5.19
2023-03-30T17:58:36.343Z,5.20
2023-03-30T18:01:12.723Z,5.25
2023-03-30T18:03:43.497Z,5.04
2023-03-30T18:06:16.350Z,5.23
2023-03-30T18:08:54.424Z,4.93
2023-03-30T18:11:23.818Z,4.92
2023-03-30T18:13:53.639Z,4.80
2023-03-30T18:16:24.865Z,4.75
2023-03-30T18:18:53.831Z,5.18
2023-03-30T18:21:22.559Z,5.14
2023-03-30T18:23:51.750Z,5.17
2023-03-30T18:26:22.041Z,5.11
2023-03-30T18:28:51.965Z,5.14
2023-03-30T18:31:21.987Z,5.11
2023-03-30T18:33:53.260Z,4.86
2023-03-30T18:36:23.439Z,4.78
2023-03-30T18:38:55.626Z,4.78
2023-03-30T18:41:24.000Z,4.80
2023-03-30T18:43:53.802Z,5.25
2023-03-30T18:46:23.032Z,5.25
2023-03-30T18:48:54.782Z,5.20
2023-03-30T18:51:23.749Z,5.11
2023-03-30T18:53:52.141Z,5.22
2023-03-30T18:56:21.812Z,5.18
2023-03-30T18:58:51.441Z,4.89
2023-03-30T19:01:22.889Z,4.57
2023-03-30T19:03:51.688Z,4.60
2023-03-30T19:06:36.462Z,4.95
2023-03-30T19:09:07.310Z,5.12
2023-03-30T19:11:36.142Z,4.88
2023-03-30T19:14:06.073Z,4.67
2023-03-30T19:16:35.876Z,4.70
2023-03-30T19:19:04.462Z,4.76
2023-03-30T19:21:33.756Z,4.91
2023-03-30T19:24:02.772Z,4.77
2023-03-30T19:26:32.629Z,4.94
2023-03-30T19:29:01.849Z,4.89
2023-03-30T19:31:32.685Z,5.01
2023-03-30T19:34:01.898Z,4.96
2023-03-30T19:36:32.922Z,5.04
2023-03-30T19:39:02.302Z,4.56
2023-03-30T19:41:33.496Z,4.82
2023-03-30T19:44:02.525Z,4.68
2023-03-30T19:46:33.981Z,4.90
2023-03-30T19:49:03.890Z,4.91
2023-03-30T19:51:35.823Z,4.92
2023-03-30T19:54:04.463Z,4.65
2023-03-30T19:56:34.556Z,4.69
2023-03-30T19:59:04.393Z,5.01
2023-03-30T20:01:35.245Z,4.55
2023-03-30T20:04:04.481Z,4.87
2023-03-30T20:06:36.366Z,4.59
2023-03-30T20:09:30.183Z,4.54
2023-03-30T20:12:01.839Z,4.03
2023-03-30T20:14:32.786Z,4.79
2023-03-30T20:17:03.090Z,4.53
2023-03-30T20:19:32.178Z,4.49
2023-03-30T20:22:01.563Z,4.81
2023-03-30T20:24:34.378Z,4.81
2023-03-30T20:27:03.421Z,4.42
2023-03-30T20:29:32.383Z,4.85
2023-03-30T20:32:02.354Z,4.79
2023-03-30T20:34:35.282Z,5.10
2023-03-30T20:37:03.988Z,4.79
2023-03-30T20:39:40.572Z,4.89
2023-03-30T20:42:12.152Z,4.65
2023-03-30T20:45:18.501Z,4.11
2023-03-30T20:48:42.904Z,4.68
2023-03-30T20:50:54.188Z,4.58
2023-03-30T20:53:24.194Z,5.05
2023-03-30T20:56:38.066Z,4.30
2023-03-30T20:59:32.289Z,4.98
2023-03-30T21:02:06.977Z,4.97
2023-03-30T21:05:06.167Z,4.39
2023-03-30T21:11:27.994Z,4.63
2023-03-30T21:14:17.507Z,4.83
2023-03-30T21:19:52.781Z,4.61
2023-03-30T21:22:24.830Z,4.27
2023-03-30T21:25:03.660Z,4.91
2023-03-30T21:27:39.597Z,4.71
2023-03-30T21:31:04.805Z,4.54
2023-03-30T21:33:40.838Z,4.47
2023-03-30T21:36:19.852Z,4.41
2023-03-30T21:38:48.388Z,4.66
2023-03-30T21:41:24.744Z,4.75
2023-03-30T21:43:54.586Z,4.84
2023-03-30T21:46:26.979Z,4.69
2023-03-30T21:48:56.224Z,5.07
2023-03-30T21:51:28.947Z,4.37
2023-03-30T21:54:02.205Z,4.29
2023-03-30T21:56:32.457Z,4.70
2023-03-30T21:59:02.671Z,4.52
2023-03-30T22:01:31.928Z,4.92
2023-03-30T22:04:04.718Z,4.81
2023-03-30T22:06:35.688Z,4.52
2023-03-30T22:09:04.167Z,4.49
2023-03-30T22:11:34.210Z,4.73
2023-03-30T22:14:03.881Z,4.36
2023-03-30T22:16:34.432Z,4.46
2023-03-30T22:19:05.615Z,4.76
2023-03-30T22:21:38.528Z,4.91
2023-03-30T22:24:08.972Z,4.44
2023-03-30T22:26:38.622Z,4.34
2023-03-30T22:29:08.967Z,4.17
2023-03-30T22:31:39.433Z,4.13
2023-03-30T22:34:10.346Z,4.63
2023-03-30T22:36:39.928Z,4.76
2023-03-30T22:39:10.116Z,4.62
2023-03-30T22:41:39.619Z,4.65
2023-03-30T22:44:08.183Z,4.98
2023-03-30T22:46:39.660Z,4.81
2023-03-30T22:49:08.525Z,4.84
2023-03-30T22:51:52.551Z,4.65
2023-03-30T22:54:22.554Z,4.82
2023-03-30T22:56:51.561Z,4.98
2023-03-30T22:59:22.351Z,4.94
2023-03-30T23:01:52.038Z,4.85
2023-03-30T23:04:22.640Z,5.08
2023-03-30T23:06:51.852Z,4.89
2023-03-30T23:09:22.515Z,4.75
2023-03-30T23:11:51.893Z,5.06
2023-03-30T23:14:21.313Z,4.65
2023-03-30T23:16:52.550Z,5.04
2023-03-30T23:19:26.003Z,4.98
2023-03-30T23:21:55.170Z,4.39
2023-03-30T23:24:24.213Z,4.54
2023-03-30T23:26:53.821Z,4.92
2023-03-30T23:29:23.825Z,4.71
2023-03-30T23:31:54.095Z,4.75
2023-03-30T23:34:24.260Z,4.92
2023-03-30T23:37:00.571Z,4.94
2023-03-30T23:39:33.915Z,4.88
2023-03-30T23:42:02.923Z,4.97
2023-03-30T23:44:32.084Z,5.22
2023-03-30T23:47:01.922Z,4.95
2023-03-30T23:49:32.331Z,4.67
2023-03-30T23:52:05.600Z,4.87
2023-03-30T23:54:40.034Z,4.51
2023-03-30T23:57:41.578Z,4.87
